sensor_id;sensor_type;location;lat;lon;timestamp;P1;durP1;ratioP1;P2;durP2;ratioP2
9304;SDS011;4690;52.422;13.486;2023-08-30T00:13:43;7.72;;;6.00;;
9304;SDS011;4690;52.422;13.486;2023-08-30T00:16:09;6.95;;;6.25;;
9304;SDS011;4690;52.422;13.486;2023-08-30T00:18:35;7.35;;;6.65;;
9304;SDS011;4690;52.422;13.486;2023-08-30T00:21:00;9.82;;;7.60;;
9304;SDS011;4690;52.422;13.486;2023-08-30T00:23:26;6.22;;;5.60;;
9304;SDS011;4690;52.422;13.486;2023-08-30T00:25:52;9.60;;;6.88;;
9304;SDS011;4690;52.422;13.486;2023-08-30T00:28:18;6.80;;;6.20;;
9304;SDS011;4690;52.422;13.486;2023-08-30T00:30:43;8.07;;;6.45;;
9304;SDS011;4690;52.422;13.486;2023-08-30T00:33:09;9.38;;;6.75;;
9304;SDS011;4690;52.422;13.486;2023-08-30T00:35:35;9.07;;;6.72;;
9304;SDS011;4690;52.422;13.486;2023-08-30T00:38:01;7.90;;;6.00;;
9304;SDS011;4690;52.422;13.486;2023-08-30T00:40:28;8.07;;;5.93;;
9304;SDS011;4690;52.422;13.486;2023-08-30T00:42:54;9.02;;;6.13;;
9304;SDS011;4690;52.422;13.486;2023-08-30T00:45:19;9.55;;;6.95;;
9304;SDS011;4690;52.422;13.486;2023-08-30T00:47:45;15.75;;;8.68;;
9304;SDS011;4690;52.422;13.486;2023-08-30T00:50:11;15.18;;;8.55;;
9304;SDS011;4690;52.422;13.486;2023-08-30T00:52:39;8.52;;;7.22;;
9304;SDS011;4690;52.422;13.486;2023-08-30T00:55:05;8.10;;;6.65;;
9304;SDS011;4690;52.422;13.486;2023-08-30T00:57:32;7.60;;;6.43;;
9304;SDS011;4690;52.422;13.486;2023-08-30T00:59:58;12.77;;;7.95;;
9304;SDS011;4690;52.422;13.486;2023-08-30T01:02:23;7.45;;;6.65;;
9304;SDS011;4690;52.422;13.486;2023-08-30T01:04:49;12.73;;;7.55;;
9304;SDS011;4690;52.422;13.486;2023-08-30T01:07:15;7.88;;;6.68;;
9304;SDS011;4690;52.422;13.486;2023-08-30T01:09:41;10.18;;;6.68;;
9304;SDS011;4690;52.422;13.486;2023-08-30T01:12:08;5.75;;;5.10;;
9304;SDS011;4690;52.422;13.486;2023-08-30T01:14:52;8.98;;;6.32;;
9304;SDS011;4690;52.422;13.486;2023-08-30T01:17:44;9.40;;;7.07;;
9304;SDS011;4690;52.422;13.486;2023-08-30T01:20:14;7.88;;;6.35;;
9304;SDS011;4690;52.422;13.486;2023-08-30T01:28:12;9.05;;;7.53;;
9304;SDS011;4690;52.422;13.486;2023-08-30T01:30:44;6.55;;;5.03;;
9304;SDS011;4690;52.422;13.486;2023-08-30T01:33:11;9.68;;;6.70;;
9304;SDS011;4690;52.422;13.486;2023-08-30T01:35:42;5.60;;;5.10;;
9304;SDS011;4690;52.422;13.486;2023-08-30T01:38:09;5.32;;;4.82;;
9304;SDS011;4690;52.422;13.486;2023-08-30T01:40:37;7.03;;;6.32;;
9304;SDS011;4690;52.422;13.486;2023-08-30T01:43:07;7.13;;;6.10;;
9304;SDS011;4690;52.422;13.486;2023-08-30T01:45:36;6.00;;;5.40;;
9304;SDS011;4690;52.422;13.486;2023-08-30T01:48:07;11.60;;;7.57;;
9304;SDS011;4690;52.422;13.486;2023-08-30T01:50:37;7.07;;;6.38;;
9304;SDS011;4690;52.422;13.486;2023-08-30T01:53:06;10.52;;;7.70;;
9304;SDS011;4690;52.422;13.486;2023-08-30T01:55:35;6.00;;;5.50;;
9304;SDS011;4690;52.422;13.486;2023-08-30T01:58:03;6.85;;;6.20;;
9304;SDS011;4690;52.422;13.486;2023-08-30T02:00:29;6.20;;;5.60;;
9304;SDS011;4690;52.422;13.486;2023-08-30T02:02:56;7.00;;;6.38;;
9304;SDS011;4690;52.422;13.486;2023-08-30T02:05:22;13.00;;;7.32;;
9304;SDS011;4690;52.422;13.486;2023-08-30T02:07:58;6.50;;;5.90;;
9304;SDS011;4690;52.422;13.486;2023-08-30T02:10:44;10.15;;;6.13;;
9304;SDS011;4690;52.422;13.486;2023-08-30T02:13:21;8.35;;;6.50;;
9304;SDS011;4690;52.422;13.486;2023-08-30T02:15:56;9.70;;;7.57;;
9304;SDS011;4690;52.422;13.486;2023-08-30T02:18:25;7.30;;;6.40;;
9304;SDS011;4690;52.422;13.486;2023-08-30T02:20:52;8.05;;;6.50;;
9304;SDS011;4690;52.422;13.486;2023-08-30T02:23:18;9.68;;;7.35;;
9304;SDS011;4690;52.422;13.486;2023-08-30T02:25:44;6.60;;;6.00;;
9304;SDS011;4690;52.422;13.486;2023-08-30T02:28:10;10.20;;;6.63;;
9304;SDS011;4690;52.422;13.486;2023-08-30T02:30:35;7.03;;;6.03;;
9304;SDS011;4690;52.422;13.486;2023-08-30T02:33:01;6.43;;;5.63;;
9304;SDS011;4690;52.422;13.486;2023-08-30T02:35:27;6.43;;;5.82;;
9304;SDS011;4690;52.422;13.486;2023-08-30T02:37:53;7.72;;;6.45;;
9304;SDS011;4690;52.422;13.486;2023-08-30T02:40:19;7.95;;;7.15;;
9304;SDS011;4690;52.422;13.486;2023-08-30T02:42:44;6.60;;;5.97;;
9304;SDS011;4690;52.422;13.486;2023-08-30T02:45:10;10.38;;;7.50;;
9304;SDS011;4690;52.422;13.486;2023-08-30T02:47:36;6.85;;;6.25;;
9304;SDS011;4690;52.422;13.486;2023-08-30T02:50:01;7.18;;;6.13;;
9304;SDS011;4690;52.422;13.486;2023-08-30T02:52:28;6.65;;;5.93;;
9304;SDS011;4690;52.422;13.486;2023-08-30T02:54:53;11.18;;;7.18;;
9304;SDS011;4690;52.422;13.486;2023-08-30T02:57:19;10.32;;;6.95;;
9304;SDS011;4690;52.422;13.486;2023-08-30T02:59:45;11.20;;;7.80;;
9304;SDS011;4690;52.422;13.486;2023-08-30T03:02:10;9.13;;;6.70;;
9304;SDS011;4690;52.422;13.486;2023-08-30T03:04:36;10.10;;;6.70;;
9304;SDS011;4690;52.422;13.486;2023-08-30T03:07:03;6.40;;;5.80;;
9304;SDS011;4690;52.422;13.486;2023-08-30T03:09:29;5.55;;;5.03;;
9304;SDS011;4690;52.422;13.486;2023-08-30T03:11:55;7.85;;;5.97;;
9304;SDS011;4690;52.422;13.486;2023-08-30T03:14:21;9.05;;;6.65;;
9304;SDS011;4690;52.422;13.486;2023-08-30T03:16:46;7.88;;;6.43;;
9304;SDS011;4690;52.422;13.486;2023-08-30T03:19:12;6.43;;;5.50;;
9304;SDS011;4690;52.422;13.486;2023-08-30T03:21:38;8.20;;;6.10;;
9304;SDS011;4690;52.422;13.486;2023-08-30T03:24:04;7.43;;;6.22;;
9304;SDS011;4690;52.422;13.486;2023-08-30T03:26:30;6.00;;;5.50;;
9304;SDS011;4690;52.422;13.486;2023-08-30T03:28:56;7.03;;;6.32;;
9304;SDS011;4690;52.422;13.486;2023-08-30T03:31:21;6.07;;;5.40;;
9304;SDS011;4690;52.422;13.486;2023-08-30T03:33:48;7.68;;;6.05;;
9304;SDS011;4690;52.422;13.486;2023-08-30T03:36:15;6.18;;;5.60;;
9304;SDS011;4690;52.422;13.486;2023-08-30T03:38:43;7.10;;;6.40;;
9304;SDS011;4690;52.422;13.486;2023-08-30T03:41:10;6.20;;;5.60;;
9304;SDS011;4690;52.422;13.486;2023-08-30T03:43:37;7.07;;;6.38;;
9304;SDS011;4690;52.422;13.486;2023-08-30T03:46:03;7.38;;;5.80;;
9304;SDS011;4690;52.422;13.486;2023-08-30T03:48:30;6.47;;;5.88;;
9304;SDS011;4690;52.422;13.486;2023-08-30T03:50:56;8.73;;;6.32;;
9304;SDS011;4690;52.422;13.486;2023-08-30T03:53:23;5.95;;;5.30;;
9304;SDS011;4690;52.422;13.486;2023-08-30T03:55:50;6.75;;;5.00;;
9304;SDS011;4690;52.422;13.486;2023-08-30T03:58:16;5.10;;;4.70;;
9304;SDS011;4690;52.422;13.486;2023-08-30T04:00:44;6.03;;;5.43;;
9304;SDS011;4690;52.422;13.486;2023-08-30T04:03:10;7.38;;;5.40;;
9304;SDS011;4690;52.422;13.486;2023-08-30T04:05:39;5.78;;;5.00;;
9304;SDS011;4690;52.422;13.486;2023-08-30T04:08:05;8.80;;;5.68;;
9304;SDS011;4690;52.422;13.486;2023-08-30T04:10:36;7.45;;;6.47;;
9304;SDS011;4690;52.422;13.486;2023-08-30T04:13:04;5.78;;;5.20;;
9304;SDS011;4690;52.422;13.486;2023-08-30T04:15:34;5.43;;;4.97;;
9304;SDS011;4690;52.422;13.486;2023-08-30T04:18:02;5.40;;;4.90;;
9304;SDS011;4690;52.422;13.486;2023-08-30T04:20:29;5.75;;;5.15;;
9304;SDS011;4690;52.422;13.486;2023-08-30T04:22:57;4.78;;;4.28;;
9304;SDS011;4690;52.422;13.486;2023-08-30T04:25:26;5.72;;;5.10;;
9304;SDS011;4690;52.422;13.486;2023-08-30T04:27:56;5.82;;;4.82;;
9304;SDS011;4690;52.422;13.486;2023-08-30T04:30:22;6.15;;;5.20;;
9304;SDS011;4690;52.422;13.486;2023-08-30T04:32:48;5.97;;;5.43;;
9304;SDS011;4690;52.422;13.486;2023-08-30T04:35:14;5.88;;;5.35;;
9304;SDS011;4690;52.422;13.486;2023-08-30T04:37:39;6.35;;;5.82;;
9304;SDS011;4690;52.422;13.486;2023-08-30T04:40:08;6.30;;;5.70;;
9304;SDS011;4690;52.422;13.486;2023-08-30T04:42:35;5.90;;;5.32;;
9304;SDS011;4690;52.422;13.486;2023-08-30T04:45:02;6.32;;;5.72;;
9304;SDS011;4690;52.422;13.486;2023-08-30T04:47:29;6.25;;;5.65;;
9304;SDS011;4690;52.422;13.486;2023-08-30T04:49:56;5.38;;;4.93;;
9304;SDS011;4690;52.422;13.486;2023-08-30T04:52:22;6.25;;;5.75;;
9304;SDS011;4690;52.422;13.486;2023-08-30T04:54:48;6.25;;;5.65;;
9304;SDS011;4690;52.422;13.486;2023-08-30T04:57:14;5.90;;;5.30;;
9304;SDS011;4690;52.422;13.486;2023-08-30T04:59:41;6.07;;;5.57;;
9304;SDS011;4690;52.422;13.486;2023-08-30T05:02:08;7.20;;;5.80;;
9304;SDS011;4690;52.422;13.486;2023-08-30T05:04:33;6.13;;;5.55;;
9304;SDS011;4690;52.422;13.486;2023-08-30T05:07:00;6.43;;;5.90;;
9304;SDS011;4690;52.422;13.486;2023-08-30T05:09:26;5.63;;;5.03;;
9304;SDS011;4690;52.422;13.486;2023-08-30T05:11:52;6.32;;;5.53;;
9304;SDS011;4690;52.422;13.486;2023-08-30T05:14:19;8.38;;;5.85;;
9304;SDS011;4690;52.422;13.486;2023-08-30T05:16:45;9.55;;;6.85;;
9304;SDS011;4690;52.422;13.486;2023-08-30T05:19:11;6.35;;;5.85;;
9304;SDS011;4690;52.422;13.486;2023-08-30T05:21:37;5.68;;;5.18;;
9304;SDS011;4690;52.422;13.486;2023-08-30T05:24:03;7.07;;;5.50;;
9304;SDS011;4690;52.422;13.486;2023-08-30T05:26:32;6.20;;;5.68;;
9304;SDS011;4690;52.422;13.486;2023-08-30T05:28:58;5.82;;;4.90;;
9304;SDS011;4690;52.422;13.486;2023-08-30T05:31:24;5.60;;;5.10;;
9304;SDS011;4690;52.422;13.486;2023-08-30T05:33:50;5.18;;;4.68;;
9304;SDS011;4690;52.422;13.486;2023-08-30T05:36:16;6.40;;;5.90;;
9304;SDS011;4690;52.422;13.486;2023-08-30T05:38:42;6.88;;;6.18;;
9304;SDS011;4690;52.422;13.486;2023-08-30T05:41:08;6.75;;;6.25;;
9304;SDS011;4690;52.422;13.486;2023-08-30T05:43:34;5.80;;;5.40;;
9304;SDS011;4690;52.422;13.486;2023-08-30T05:46:00;6.78;;;6.07;;
9304;SDS011;4690;52.422;13.486;2023-08-30T05:48:27;5.88;;;5.38;;
9304;SDS011;4690;52.422;13.486;2023-08-30T05:50:55;7.97;;;6.13;;
9304;SDS011;4690;52.422;13.486;2023-08-30T05:53:22;6.15;;;5.65;;
9304;SDS011;4690;52.422;13.486;2023-08-30T05:55:49;6.88;;;6.28;;
9304;SDS011;4690;52.422;13.486;2023-08-30T05:58:15;7.70;;;6.70;;
9304;SDS011;4690;52.422;13.486;2023-08-30T06:00:42;8.25;;;7.05;;
9304;SDS011;4690;52.422;13.486;2023-08-30T06:03:08;9.07;;;8.23;;
9304;SDS011;4690;52.422;13.486;2023-08-30T06:05:35;7.88;;;6.88;;
9304;SDS011;4690;52.422;13.486;2023-08-30T06:08:01;6.90;;;6.20;;
9304;SDS011;4690;52.422;13.486;2023-08-30T06:10:27;8.13;;;7.32;;
9304;SDS011;4690;52.422;13.486;2023-08-30T06:12:53;6.35;;;5.82;;
9304;SDS011;4690;52.422;13.486;2023-08-30T06:15:19;8.30;;;6.47;;
9304;SDS011;4690;52.422;13.486;2023-08-30T06:17:45;7.75;;;6.93;;
9304;SDS011;4690;52.422;13.486;2023-08-30T06:20:11;7.10;;;6.40;;
9304;SDS011;4690;52.422;13.486;2023-08-30T06:22:38;6.68;;;5.95;;
9304;SDS011;4690;52.422;13.486;2023-08-30T06:25:04;6.25;;;5.65;;
9304;SDS011;4690;52.422;13.486;2023-08-30T06:27:32;6.15;;;5.65;;
9304;SDS011;4690;52.422;13.486;2023-08-30T06:29:57;7.45;;;6.75;;
9304;SDS011;4690;52.422;13.486;2023-08-30T06:32:23;6.18;;;5.45;;
9304;SDS011;4690;52.422;13.486;2023-08-30T06:34:50;6.20;;;5.60;;
9304;SDS011;4690;52.422;13.486;2023-08-30T06:37:15;5.82;;;4.97;;
9304;SDS011;4690;52.422;13.486;2023-08-30T06:39:42;5.82;;;5.32;;
9304;SDS011;4690;52.422;13.486;2023-08-30T06:42:08;5.30;;;4.80;;
9304;SDS011;4690;52.422;13.486;2023-08-30T06:44:33;6.57;;;5.95;;
9304;SDS011;4690;52.422;13.486;2023-08-30T06:46:59;8.52;;;5.32;;
9304;SDS011;4690;52.422;13.486;2023-08-30T06:49:25;5.90;;;5.40;;
9304;SDS011;4690;52.422;13.486;2023-08-30T06:51:51;8.23;;;6.78;;
9304;SDS011;4690;52.422;13.486;2023-08-30T06:54:17;6.13;;;5.50;;
9304;SDS011;4690;52.422;13.486;2023-08-30T06:56:56;5.03;;;4.53;;
9304;SDS011;4690;52.422;13.486;2023-08-30T06:59:23;7.00;;;6.30;;
9304;SDS011;4690;52.422;13.486;2023-08-30T07:01:49;6.82;;;5.78;;
9304;SDS011;4690;52.422;13.486;2023-08-30T07:04:15;6.63;;;5.70;;
9304;SDS011;4690;52.422;13.486;2023-08-30T07:06:41;6.35;;;5.15;;
9304;SDS011;4690;52.422;13.486;2023-08-30T07:09:06;7.20;;;5.28;;
9304;SDS011;4690;52.422;13.486;2023-08-30T07:11:32;5.80;;;4.97;;
9304;SDS011;4690;52.422;13.486;2023-08-30T07:13:59;6.20;;;5.50;;
9304;SDS011;4690;52.422;13.486;2023-08-30T07:16:25;5.10;;;4.60;;
9304;SDS011;4690;52.422;13.486;2023-08-30T07:18:50;4.75;;;4.35;;
9304;SDS011;4690;52.422;13.486;2023-08-30T07:21:16;9.65;;;5.80;;
9304;SDS011;4690;52.422;13.486;2023-08-30T07:23:42;5.15;;;4.75;;
9304;SDS011;4690;52.422;13.486;2023-08-30T07:26:08;6.20;;;5.38;;
9304;SDS011;4690;52.422;13.486;2023-08-30T07:28:34;4.82;;;4.43;;
9304;SDS011;4690;52.422;13.486;2023-08-30T07:31:04;6.57;;;6.00;;
9304;SDS011;4690;52.422;13.486;2023-08-30T07:33:30;5.55;;;5.10;;
9304;SDS011;4690;52.422;13.486;2023-08-30T07:35:55;5.88;;;5.22;;
9304;SDS011;4690;52.422;13.486;2023-08-30T07:38:22;7.38;;;4.80;;
9304;SDS011;4690;52.422;13.486;2023-08-30T07:40:47;6.03;;;5.10;;
9304;SDS011;4690;52.422;13.486;2023-08-30T07:43:13;7.65;;;4.97;;
9304;SDS011;4690;52.422;13.486;2023-08-30T07:45:39;3.80;;;3.50;;
9304;SDS011;4690;52.422;13.486;2023-08-30T07:48:05;4.35;;;4.00;;
9304;SDS011;4690;52.422;13.486;2023-08-30T07:50:31;4.38;;;3.97;;
9304;SDS011;4690;52.422;13.486;2023-08-30T07:52:56;5.07;;;4.40;;
9304;SDS011;4690;52.422;13.486;2023-08-30T07:55:22;4.20;;;3.85;;
9304;SDS011;4690;52.422;13.486;2023-08-30T07:57:48;9.70;;;4.65;;
9304;SDS011;4690;52.422;13.486;2023-08-30T08:00:14;4.13;;;3.72;;
9304;SDS011;4690;52.422;13.486;2023-08-30T08:02:40;4.60;;;4.20;;
9304;SDS011;4690;52.422;13.486;2023-08-30T08:05:06;4.50;;;4.10;;
9304;SDS011;4690;52.422;13.486;2023-08-30T08:07:33;4.70;;;3.95;;
9304;SDS011;4690;52.422;13.486;2023-08-30T08:09:58;5.10;;;4.70;;
9304;SDS011;4690;52.422;13.486;2023-08-30T08:12:25;3.70;;;3.50;;
9304;SDS011;4690;52.422;13.486;2023-08-30T08:14:52;3.60;;;3.30;;
9304;SDS011;4690;52.422;13.486;2023-08-30T08:17:17;4.50;;;4.10;;
9304;SDS011;4690;52.422;13.486;2023-08-30T08:19:43;3.80;;;3.38;;
9304;SDS011;4690;52.422;13.486;2023-08-30T08:22:09;3.88;;;3.47;;
9304;SDS011;4690;52.422;13.486;2023-08-30T08:24:35;3.50;;;3.20;;
9304;SDS011;4690;52.422;13.486;2023-08-30T08:27:01;3.67;;;3.38;;
9304;SDS011;4690;52.422;13.486;2023-08-30T08:29:27;4.30;;;3.90;;
9304;SDS011;4690;52.422;13.486;2023-08-30T08:31:53;4.28;;;3.97;;
9304;SDS011;4690;52.422;13.486;2023-08-30T08:34:19;3.95;;;3.55;;
9304;SDS011;4690;52.422;13.486;2023-08-30T08:36:45;4.32;;;3.75;;
9304;SDS011;4690;52.422;13.486;2023-08-30T08:39:11;4.00;;;3.70;;
9304;SDS011;4690;52.422;13.486;2023-08-30T08:41:42;3.30;;;3.03;;
9304;SDS011;4690;52.422;13.486;2023-08-30T08:44:09;3.92;;;3.63;;
9304;SDS011;4690;52.422;13.486;2023-08-30T08:46:37;3.78;;;3.47;;
9304;SDS011;4690;52.422;13.486;2023-08-30T08:49:09;3.90;;;3.50;;
9304;SDS011;4690;52.422;13.486;2023-08-30T08:51:39;3.45;;;3.17;;
9304;SDS011;4690;52.422;13.486;2023-08-30T08:54:07;5.28;;;3.28;;
9304;SDS011;4690;52.422;13.486;2023-08-30T08:56:34;3.20;;;2.90;;
9304;SDS011;4690;52.422;13.486;2023-08-30T08:59:02;3.67;;;3.00;;
9304;SDS011;4690;52.422;13.486;2023-08-30T09:01:30;2.95;;;2.67;;
9304;SDS011;4690;52.422;13.486;2023-08-30T09:03:58;2.80;;;2.60;;
9304;SDS011;4690;52.422;13.486;2023-08-30T09:06:24;3.58;;;3.28;;
9304;SDS011;4690;52.422;13.486;2023-08-30T09:08:50;2.90;;;2.58;;
9304;SDS011;4690;52.422;13.486;2023-08-30T09:11:17;3.05;;;2.75;;
9304;SDS011;4690;52.422;13.486;2023-08-30T09:13:43;2.92;;;2.70;;
9304;SDS011;4690;52.422;13.486;2023-08-30T09:16:13;4.88;;;3.00;;
9304;SDS011;4690;52.422;13.486;2023-08-30T09:18:40;3.40;;;3.10;;
9304;SDS011;4690;52.422;13.486;2023-08-30T09:21:07;2.92;;;2.47;;
9304;SDS011;4690;52.422;13.486;2023-08-30T09:23:34;5.72;;;3.13;;
9304;SDS011;4690;52.422;13.486;2023-08-30T09:26:01;4.10;;;3.03;;
9304;SDS011;4690;52.422;13.486;2023-08-30T09:28:28;2.55;;;2.35;;
9304;SDS011;4690;52.422;13.486;2023-08-30T09:30:56;4.57;;;2.92;;
9304;SDS011;4690;52.422;13.486;2023-08-30T09:33:31;3.45;;;2.90;;
9304;SDS011;4690;52.422;13.486;2023-08-30T09:35:58;2.80;;;2.53;;
9304;SDS011;4690;52.422;13.486;2023-08-30T09:38:26;3.38;;;3.08;;
9304;SDS011;4690;52.422;13.486;2023-08-30T09:40:52;3.65;;;3.35;;
9304;SDS011;4690;52.422;13.486;2023-08-30T09:43:29;2.83;;;2.55;;
9304;SDS011;4690;52.422;13.486;2023-08-30T09:45:55;4.07;;;3.25;;
9304;SDS011;4690;52.422;13.486;2023-08-30T09:48:22;3.42;;;3.13;;
9304;SDS011;4690;52.422;13.486;2023-08-30T09:50:54;3.63;;;2.90;;
9304;SDS011;4690;52.422;13.486;2023-08-30T09:53:26;4.65;;;3.00;;
9304;SDS011;4690;52.422;13.486;2023-08-30T09:55:55;4.05;;;3.28;;
9304;SDS011;4690;52.422;13.486;2023-08-30T09:58:23;3.08;;;2.80;;
9304;SDS011;4690;52.422;13.486;2023-08-30T10:00:52;3.78;;;3.15;;
9304;SDS011;4690;52.422;13.486;2023-08-30T10:03:19;4.25;;;3.50;;
9304;SDS011;4690;52.422;13.486;2023-08-30T10:05:46;3.30;;;2.88;;
9304;SDS011;4690;52.422;13.486;2023-08-30T10:08:15;4.60;;;3.95;;
9304;SDS011;4690;52.422;13.486;2023-08-30T10:10:44;6.03;;;3.83;;
9304;SDS011;4690;52.422;13.486;2023-08-30T10:13:09;3.67;;;3.30;;
9304;SDS011;4690;52.422;13.486;2023-08-30T10:15:39;3.28;;;2.97;;
9304;SDS011;4690;52.422;13.486;2023-08-30T10:18:12;4.53;;;3.10;;
9304;SDS011;4690;52.422;13.486;2023-08-30T10:20:45;4.18;;;2.63;;
9304;SDS011;4690;52.422;13.486;2023-08-30T10:23:13;3.33;;;2.75;;
9304;SDS011;4690;52.422;13.486;2023-08-30T10:25:42;3.55;;;2.80;;
9304;SDS011;4690;52.422;13.486;2023-08-30T10:28:10;3.47;;;2.40;;
9304;SDS011;4690;52.422;13.486;2023-08-30T10:30:37;2.20;;;2.00;;
9304;SDS011;4690;52.422;13.486;2023-08-30T10:33:11;2.50;;;2.30;;
9304;SDS011;4690;52.422;13.486;2023-08-30T10:35:46;2.35;;;2.15;;
9304;SDS011;4690;52.422;13.486;2023-08-30T10:38:23;6.13;;;2.60;;
9304;SDS011;4690;52.422;13.486;2023-08-30T10:40:54;2.42;;;2.15;;
9304;SDS011;4690;52.422;13.486;2023-08-30T10:43:31;3.15;;;2.10;;
9304;SDS011;4690;52.422;13.486;2023-08-30T10:46:04;2.20;;;2.00;;
9304;SDS011;4690;52.422;13.486;2023-08-30T10:48:39;2.50;;;2.17;;
9304;SDS011;4690;52.422;13.486;2023-08-30T10:51:20;2.85;;;2.28;;
9304;SDS011;4690;52.422;13.486;2023-08-30T10:53:59;4.40;;;2.17;;
9304;SDS011;4690;52.422;13.486;2023-08-30T10:56:31;2.10;;;1.90;;
9304;SDS011;4690;52.422;13.486;2023-08-30T10:58:59;3.85;;;1.83;;
9304;SDS011;4690;52.422;13.486;2023-08-30T11:01:28;3.47;;;2.00;;
9304;SDS011;4690;52.422;13.486;2023-08-30T11:03:54;2.78;;;2.40;;
9304;SDS011;4690;52.422;13.486;2023-08-30T11:06:21;3.28;;;2.33;;
9304;SDS011;4690;52.422;13.486;2023-08-30T11:08:47;2.42;;;2.13;;
9304;SDS011;4690;52.422;13.486;2023-08-30T11:11:14;1.90;;;1.80;;
9304;SDS011;4690;52.422;13.486;2023-08-30T11:13:41;3.58;;;1.95;;
9304;SDS011;4690;52.422;13.486;2023-08-30T11:16:06;1.92;;;1.70;;
9304;SDS011;4690;52.422;13.486;2023-08-30T11:18:39;2.00;;;1.80;;
9304;SDS011;4690;52.422;13.486;2023-08-30T11:21:06;2.13;;;1.90;;
9304;SDS011;4690;52.422;13.486;2023-08-30T11:23:34;3.40;;;1.80;;
9304;SDS011;4690;52.422;13.486;2023-08-30T11:26:00;1.73;;;1.60;;
9304;SDS011;4690;52.422;13.486;2023-08-30T11:28:28;3.40;;;1.90;;
9304;SDS011;4690;52.422;13.486;2023-08-30T11:30:54;1.88;;;1.70;;
9304;SDS011;4690;52.422;13.486;2023-08-30T11:33:21;2.70;;;1.98;;
9304;SDS011;4690;52.422;13.486;2023-08-30T11:35:51;2.20;;;1.80;;
9304;SDS011;4690;52.422;13.486;2023-08-30T11:38:17;2.08;;;1.88;;
9304;SDS011;4690;52.422;13.486;2023-08-30T11:40:44;4.22;;;1.90;;
9304;SDS011;4690;52.422;13.486;2023-08-30T11:43:13;2.17;;;1.98;;
9304;SDS011;4690;52.422;13.486;2023-08-30T11:45:41;3.65;;;2.25;;
9304;SDS011;4690;52.422;13.486;2023-08-30T11:48:06;2.15;;;2.05;;
9304;SDS011;4690;52.422;13.486;2023-08-30T11:50:32;2.85;;;2.08;;
9304;SDS011;4690;52.422;13.486;2023-08-30T11:53:00;2.50;;;2.03;;
9304;SDS011;4690;52.422;13.486;2023-08-30T11:55:27;3.15;;;2.15;;
9304;SDS011;4690;52.422;13.486;2023-08-30T11:57:53;4.07;;;2.10;;
9304;SDS011;4690;52.422;13.486;2023-08-30T12:00:19;1.80;;;1.70;;
9304;SDS011;4690;52.422;13.486;2023-08-30T12:02:46;2.15;;;1.98;;
9304;SDS011;4690;52.422;13.486;2023-08-30T12:05:15;2.35;;;1.95;;
9304;SDS011;4690;52.422;13.486;2023-08-30T12:07:41;1.80;;;1.70;;
9304;SDS011;4690;52.422;13.486;2023-08-30T12:10:07;2.17;;;1.98;;
9304;SDS011;4690;52.422;13.486;2023-08-30T12:12:35;2.08;;;1.88;;
9304;SDS011;4690;52.422;13.486;2023-08-30T12:15:11;2.00;;;1.90;;
9304;SDS011;4690;52.422;13.486;2023-08-30T12:17:39;2.70;;;2.03;;
9304;SDS011;4690;52.422;13.486;2023-08-30T12:20:05;1.92;;;1.77;;
9304;SDS011;4690;52.422;13.486;2023-08-30T12:22:39;3.95;;;2.10;;
9304;SDS011;4690;52.422;13.486;2023-08-30T12:25:19;2.65;;;1.90;;
9304;SDS011;4690;52.422;13.486;2023-08-30T12:27:48;2.05;;;1.77;;
9304;SDS011;4690;52.422;13.486;2023-08-30T12:30:17;2.45;;;2.00;;
9304;SDS011;4690;52.422;13.486;2023-08-30T12:32:43;1.98;;;1.88;;
9304;SDS011;4690;52.422;13.486;2023-08-30T12:35:13;3.40;;;2.08;;
9304;SDS011;4690;52.422;13.486;2023-08-30T12:37:40;2.13;;;1.90;;
9304;SDS011;4690;52.422;13.486;2023-08-30T12:40:06;3.05;;;1.90;;
9304;SDS011;4690;52.422;13.486;2023-08-30T12:42:32;15.25;;;2.58;;
9304;SDS011;4690;52.422;13.486;2023-08-30T12:44:58;2.03;;;1.83;;
9304;SDS011;4690;52.422;13.486;2023-08-30T12:47:24;2.55;;;1.95;;
9304;SDS011;4690;52.422;13.486;2023-08-30T12:49:51;3.03;;;1.95;;
9304;SDS011;4690;52.422;13.486;2023-08-30T12:52:16;3.40;;;1.92;;
9304;SDS011;4690;52.422;13.486;2023-08-30T12:54:42;4.85;;;1.88;;
9304;SDS011;4690;52.422;13.486;2023-08-30T12:57:08;2.10;;;1.85;;
9304;SDS011;4690;52.422;13.486;2023-08-30T12:59:34;1.80;;;1.70;;
9304;SDS011;4690;52.422;13.486;2023-08-30T13:01:59;2.20;;;2.00;;
9304;SDS011;4690;52.422;13.486;2023-08-30T13:04:25;2.95;;;1.98;;
9304;SDS011;4690;52.422;13.486;2023-08-30T13:06:51;2.38;;;2.05;;
9304;SDS011;4690;52.422;13.486;2023-08-30T13:09:17;4.75;;;2.10;;
9304;SDS011;4690;52.422;13.486;2023-08-30T13:11:42;2.15;;;1.90;;
9304;SDS011;4690;52.422;13.486;2023-08-30T13:14:08;4.65;;;2.08;;
9304;SDS011;4690;52.422;13.486;2023-08-30T13:16:34;2.53;;;2.33;;
9304;SDS011;4690;52.422;13.486;2023-08-30T13:19:00;2.40;;;2.15;;
9304;SDS011;4690;52.422;13.486;2023-08-30T13:21:26;2.05;;;1.85;;
9304;SDS011;4690;52.422;13.486;2023-08-30T13:23:52;1.98;;;1.88;;
9304;SDS011;4690;52.422;13.486;2023-08-30T13:26:17;1.92;;;1.73;;
9304;SDS011;4690;52.422;13.486;2023-08-30T13:28:43;4.85;;;2.13;;
9304;SDS011;4690;52.422;13.486;2023-08-30T13:31:09;2.47;;;2.00;;
9304;SDS011;4690;52.422;13.486;2023-08-30T13:33:35;3.05;;;2.25;;
9304;SDS011;4690;52.422;13.486;2023-08-30T13:36:00;2.08;;;1.95;;
9304;SDS011;4690;52.422;13.486;2023-08-30T13:38:27;4.00;;;2.40;;
9304;SDS011;4690;52.422;13.486;2023-08-30T13:40:57;2.10;;;2.00;;
9304;SDS011;4690;52.422;13.486;2023-08-30T13:43:25;2.40;;;1.92;;
9304;SDS011;4690;52.422;13.486;2023-08-30T13:45:56;8.43;;;2.28;;
9304;SDS011;4690;52.422;13.486;2023-08-30T13:48:23;2.22;;;2.03;;
9304;SDS011;4690;52.422;13.486;2023-08-30T13:50:50;2.20;;;2.00;;
9304;SDS011;4690;52.422;13.486;2023-08-30T13:53:15;2.25;;;1.90;;
9304;SDS011;4690;52.422;13.486;2023-08-30T13:55:45;2.22;;;2.00;;
9304;SDS011;4690;52.422;13.486;2023-08-30T13:58:13;4.20;;;2.20;;
9304;SDS011;4690;52.422;13.486;2023-08-30T14:00:40;3.17;;;2.08;;
9304;SDS011;4690;52.422;13.486;2023-08-30T14:03:06;3.50;;;2.20;;
9304;SDS011;4690;52.422;13.486;2023-08-30T14:05:33;2.65;;;2.13;;
9304;SDS011;4690;52.422;13.486;2023-08-30T14:07:58;2.05;;;1.90;;
9304;SDS011;4690;52.422;13.486;2023-08-30T14:10:24;3.38;;;2.30;;
9304;SDS011;4690;52.422;13.486;2023-08-30T14:12:50;3.53;;;2.15;;
9304;SDS011;4690;52.422;13.486;2023-08-30T14:15:16;2.58;;;2.38;;
9304;SDS011;4690;52.422;13.486;2023-08-30T14:17:43;2.30;;;2.10;;
9304;SDS011;4690;52.422;13.486;2023-08-30T14:20:09;3.58;;;2.20;;
9304;SDS011;4690;52.422;13.486;2023-08-30T14:22:35;2.25;;;1.90;;
9304;SDS011;4690;52.422;13.486;2023-08-30T14:25:01;1.80;;;1.70;;
9304;SDS011;4690;52.422;13.486;2023-08-30T14:27:28;2.45;;;2.00;;
9304;SDS011;4690;52.422;13.486;2023-08-30T14:29:53;1.92;;;1.80;;
9304;SDS011;4690;52.422;13.486;2023-08-30T14:32:19;1.80;;;1.70;;
9304;SDS011;4690;52.422;13.486;2023-08-30T14:34:45;2.25;;;2.05;;
9304;SDS011;4690;52.422;13.486;2023-08-30T14:37:11;2.90;;;2.00;;
9304;SDS011;4690;52.422;13.486;2023-08-30T14:39:36;5.05;;;2.00;;
9304;SDS011;4690;52.422;13.486;2023-08-30T14:42:02;2.22;;;2.03;;
9304;SDS011;4690;52.422;13.486;2023-08-30T14:44:28;2.15;;;1.95;;
9304;SDS011;4690;52.422;13.486;2023-08-30T14:46:54;2.55;;;1.88;;
9304;SDS011;4690;52.422;13.486;2023-08-30T14:49:20;3.17;;;2.05;;
9304;SDS011;4690;52.422;13.486;2023-08-30T14:51:45;3.08;;;2.10;;
9304;SDS011;4690;52.422;13.486;2023-08-30T14:54:11;2.65;;;2.20;;
9304;SDS011;4690;52.422;13.486;2023-08-30T14:56:37;2.20;;;2.03;;
9304;SDS011;4690;52.422;13.486;2023-08-30T14:59:02;2.33;;;2.10;;
9304;SDS011;4690;52.422;13.486;2023-08-30T15:01:28;1.80;;;1.70;;
9304;SDS011;4690;52.422;13.486;2023-08-30T15:03:54;2.22;;;2.10;;
9304;SDS011;4690;52.422;13.486;2023-08-30T15:06:20;2.15;;;1.80;;
9304;SDS011;4690;52.422;13.486;2023-08-30T15:08:47;2.40;;;2.20;;
9304;SDS011;4690;52.422;13.486;2023-08-30T15:11:13;2.20;;;2.00;;
9304;SDS011;4690;52.422;13.486;2023-08-30T15:13:39;2.25;;;2.10;;
9304;SDS011;4690;52.422;13.486;2023-08-30T15:16:05;3.13;;;2.22;;
9304;SDS011;4690;52.422;13.486;2023-08-30T15:18:30;3.20;;;2.10;;